Time;durP1;ratioP1;P1;durP2;ratioP2;P2;SDS_P1;SDS_P2;PMS_P1;PMS_P2;Temp;Humidity;BMP_temperature;BMP_pressure;BME280_temperature;BME280_humidity;BME280_pressure;Samples;Min_cycle;Max_cycle;Signal;HPM_P1;HPM_P2
2020/12/01 00:01:48;;;;;;;27.37;18.13;;;;;;;2.37;100.00;100958.28;4910988;29;20051;-88
2020/12/01 00:04:15;;;;;;;28.53;18.83;;;;;;;2.35;100.00;100953.91;4911575;29;20036;-88
2020/12/01 00:06:43;;;;;;;29.33;18.57;;;;;;;2.36;100.00;100959.16;4908621;29;20523;-89
2020/12/01 00:09:11;;;;;;;30.20;18.47;;;;;;;2.29;100.00;100952.22;4892505;29;20601;-89
2020/12/01 00:11:40;;;;;;;27.43;17.23;;;;;;;2.29;100.00;100956.63;4890059;29;20059;-88
2020/12/01 00:14:07;;;;;;;28.13;17.53;;;;;;;2.24;100.00;100943.50;4892631;29;20040;-87
2020/12/01 00:16:34;;;;;;;29.03;19.03;;;;;;;2.38;100.00;100938.00;4911303;29;20395;-88
2020/12/01 00:19:01;;;;;;;28.50;18.00;;;;;;;2.40;100.00;100937.09;4910722;29;20457;-88
2020/12/01 00:21:29;;;;;;;27.13;18.50;;;;;;;2.32;100.00;100930.19;4910837;29;20473;-88
2020/12/01 00:23:56;;;;;;;26.63;17.95;;;;;;;2.35;100.00;100935.44;4906797;29;20051;-88
2020/12/01 00:26:23;;;;;;;26.40;17.53;;;;;;;2.33;100.00;100942.47;4897064;29;20042;-88
2020/12/01 00:28:51;;;;;;;28.00;17.33;;;;;;;2.23;100.00;100946.16;4911219;29;20043;-88
2020/12/01 00:31:19;;;;;;;28.83;17.87;;;;;;;2.23;100.00;100944.38;4905492;29;20046;-88
2020/12/01 00:33:48;;;;;;;29.07;18.23;;;;;;;2.24;100.00;100938.22;4906786;29;20063;-88
2020/12/01 00:36:15;;;;;;;28.60;17.67;;;;;;;2.12;100.00;100941.00;4895276;29;20143;-87
2020/12/01 00:38:43;;;;;;;28.37;17.53;;;;;;;2.28;100.00;100947.84;4886838;29;20055;-88
2020/12/01 00:41:12;;;;;;;26.15;17.60;;;;;;;2.35;100.00;100946.88;4902037;29;20044;-87
2020/12/01 00:43:39;;;;;;;25.67;17.70;;;;;;;2.30;100.00;100942.53;4912338;29;20458;-89
2020/12/01 00:46:08;;;;;;;28.20;17.80;;;;;;;2.36;100.00;100942.44;4911900;29;20056;-89
2020/12/01 00:48:35;;;;;;;30.05;18.90;;;;;;;2.24;100.00;100943.50;4911900;29;20099;-88
2020/12/01 00:51:03;;;;;;;29.97;18.67;;;;;;;2.32;100.00;100946.03;4893758;29;20047;-89
2020/12/01 00:53:30;;;;;;;29.93;18.17;;;;;;;2.29;100.00;100952.22;4903849;29;20044;-89
2020/12/01 00:55:57;;;;;;;27.37;18.90;;;;;;;2.25;100.00;100944.38;4898243;29;20054;-89
2020/12/01 00:58:26;;;;;;;30.77;17.83;;;;;;;2.37;100.00;100933.63;4902692;29;20056;-88
2020/12/01 01:01:10;;;;;;;27.30;17.23;;;;;;;2.33;100.00;100938.06;4890897;29;20048;-87
2020/12/01 01:03:38;;;;;;;24.97;17.67;;;;;;;2.39;100.00;100948.56;4905339;29;20104;-88
2020/12/01 01:06:05;;;;;;;28.60;18.17;;;;;;;2.37;100.00;100946.81;4901810;29;21419;-88
2020/12/01 01:08:32;;;;;;;25.27;16.63;;;;;;;2.34;100.00;100950.38;4882143;29;20170;-88
2020/12/01 01:10:59;;;;;;;27.87;18.77;;;;;;;2.35;100.00;100949.50;4908951;29;20501;-88
2020/12/01 01:13:26;;;;;;;26.93;17.13;;;;;;;2.30;100.00;100935.47;4908384;29;20048;-88
2020/12/01 01:15:56;;;;;;;27.67;16.87;;;;;;;2.35;100.00;100946.00;4909945;29;20044;-88
2020/12/01 01:18:24;;;;;;;30.42;17.50;;;;;;;2.28;100.00;100939.91;4894495;29;20054;-88
2020/12/01 01:20:55;;;;;;;28.83;17.40;;;;;;;2.22;100.00;100941.75;4907001;29;20099;-89
2020/12/01 01:23:22;;;;;;;29.25;18.60;;;;;;;2.23;100.00;100936.44;4903466;29;20063;-88
2020/12/01 01:25:49;;;;;;;27.50;18.27;;;;;;;2.34;100.00;100934.53;4893715;29;20044;-88
2020/12/01 01:28:16;;;;;;;28.67;16.53;;;;;;;2.43;100.00;100932.66;4912208;29;20048;-88
2020/12/01 01:30:44;;;;;;;27.73;17.63;;;;;;;2.31;100.00;100934.59;4911162;29;20044;-87
2020/12/01 01:33:12;;;;;;;30.17;17.70;;;;;;;2.36;100.00;100934.53;4907635;29;20091;-87
2020/12/01 01:35:40;;;;;;;28.67;17.87;;;;;;;2.33;100.00;100932.78;4905077;29;20040;-88
2020/12/01 01:38:08;;;;;;;27.57;17.03;;;;;;;2.36;100.00;100927.47;4905800;29;20123;-88
2020/12/01 01:40:36;;;;;;;27.90;16.90;;;;;;;2.49;100.00;100925.53;4905166;29;20056;-89
2020/12/01 01:43:04;;;;;;;26.17;16.73;;;;;;;2.35;100.00;100931.00;4892170;29;20044;-89
2020/12/01 01:45:36;;;;;;;26.97;16.93;;;;;;;2.31;100.00;100924.03;4909045;29;20048;-90
2020/12/01 01:48:24;;;;;;;27.00;17.40;;;;;;;2.35;100.00;100922.22;4903650;29;20443;-88
2020/12/01 01:51:05;;;;;;;27.47;17.63;;;;;;;2.41;100.00;100927.38;4904890;29;20573;-88
2020/12/01 01:53:39;;;;;;;30.00;17.53;;;;;;;2.43;100.00;100930.91;4906755;29;20047;-87
2020/12/01 01:56:10;;;;;;;29.50;17.43;;;;;;;2.40;100.00;100929.16;4910838;29;20040;-88
2020/12/01 01:58:41;;;;;;;27.23;17.07;;;;;;;2.46;100.00;100929.97;4907350;29;20568;-87
2020/12/01 02:01:11;;;;;;;28.70;17.87;;;;;;;2.48;100.00;100926.41;4906608;29;20068;-88
2020/12/01 02:03:41;;;;;;;25.75;16.42;;;;;;;2.52;100.00;100920.16;4898507;29;20051;-88
2020/12/01 02:06:17;;;;;;;26.85;17.65;;;;;;;2.45;100.00;100921.16;4904943;29;20043;-88
2020/12/01 02:08:47;;;;;;;25.33;16.83;;;;;;;2.44;100.00;100927.34;4905124;29;20136;-88
2020/12/01 02:11:14;;;;;;;29.50;15.93;;;;;;;2.54;100.00;100930.72;4910822;29;20054;-88
2020/12/01 02:13:50;;;;;;;33.67;18.63;;;;;;;2.46;100.00;100928.22;4913737;29;20059;-88
2020/12/01 02:16:17;;;;;;;31.80;17.97;;;;;;;2.39;100.00;100932.72;4904326;29;20067;-88
2020/12/01 02:18:44;;;;;;;29.57;17.43;;;;;;;2.40;100.00;100939.72;4908360;29;20036;-89
2020/12/01 02:21:30;;;;;;;29.60;17.23;;;;;;;2.44;100.00;100934.41;4912049;29;20040;-88
2020/12/01 02:23:59;;;;;;;27.07;16.87;;;;;;;2.45;100.00;100936.16;4909696;29;20048;-88
2020/12/01 02:26:27;;;;;;;23.43;16.73;;;;;;;2.49;100.00;100937.84;4912581;29;20052;-88
2020/12/01 02:28:55;;;;;;;27.87;17.40;;;;;;;2.46;100.00;100937.91;4908892;29;20076;-88
2020/12/01 02:31:22;;;;;;;25.93;16.47;;;;;;;2.43;100.00;100933.53;4904317;29;20502;-88
2020/12/01 02:33:50;;;;;;;25.73;17.30;;;;;;;2.37;100.00;100939.78;4905091;29;20115;-87
2020/12/01 02:36:18;;;;;;;27.00;16.43;;;;;;;2.37;100.00;100941.53;4913844;29;20047;-88
2020/12/01 02:38:45;;;;;;;30.33;17.27;;;;;;;2.36;100.00;100937.16;4913859;29;20055;-89
2020/12/01 02:41:12;;;;;;;27.70;17.90;;;;;;;2.47;100.00;100945.81;4910163;29;20036;-88
2020/12/01 02:43:40;;;;;;;24.60;16.80;;;;;;;2.40;100.00;100945.00;4910928;29;20044;-89
2020/12/01 02:46:07;;;;;;;27.73;17.27;;;;;;;2.49;100.00;100943.13;4904963;29;20040;-88
2020/12/01 02:48:34;;;;;;;24.50;15.87;;;;;;;2.40;100.00;100939.72;4907539;29;20059;-88
2020/12/01 02:51:01;;;;;;;28.07;16.97;;;;;;;2.48;100.00;100936.09;4893832;29;20059;-89
2020/12/01 02:53:28;;;;;;;25.20;16.17;;;;;;;2.50;100.00;100939.59;4912787;29;20036;-87
2020/12/01 02:55:56;;;;;;;26.23;16.80;;;;;;;2.54;100.00;100946.59;4910838;29;20059;-87
2020/12/01 02:58:23;;;;;;;26.27;17.07;;;;;;;2.53;100.00;100947.50;4908137;29;20050;-89
2020/12/01 03:00:51;;;;;;;27.67;16.13;;;;;;;2.51;100.00;100944.84;4902607;29;20086;-89
2020/12/01 03:03:18;;;;;;;29.53;17.00;;;;;;;2.51;100.00;100941.34;4909269;29;20040;-88
2020/12/01 03:05:46;;;;;;;26.70;16.67;;;;;;;2.56;100.00;100945.69;4896969;29;20048;-87
2020/12/01 03:08:13;;;;;;;30.50;17.25;;;;;;;2.52;100.00;100951.88;4912491;29;20421;-88
2020/12/01 03:10:40;;;;;;;26.35;16.95;;;;;;;2.54;100.00;100950.09;4909315;29;20043;-87
2020/12/01 03:13:08;;;;;;;28.40;16.67;;;;;;;2.52;100.00;100953.66;4903136;29;20066;-88
2020/12/01 03:15:35;;;;;;;26.45;16.65;;;;;;;2.63;100.00;100951.72;4905641;29;20505;-88
2020/12/01 03:18:03;;;;;;;29.07;17.57;;;;;;;2.59;100.00;100956.19;4908839;29;20056;-87
2020/12/01 03:20:30;;;;;;;27.80;16.77;;;;;;;2.63;100.00;100952.63;4895531;29;20490;-87
2020/12/01 03:22:59;;;;;;;28.23;17.95;;;;;;;2.64;100.00;100959.66;4911588;29;20075;-87
2020/12/01 03:25:26;;;;;;;25.23;16.13;;;;;;;2.57;100.00;100958.00;4909745;29;20052;-87
2020/12/01 03:27:53;;;;;;;29.73;18.40;;;;;;;2.61;100.00;100950.88;4901911;29;20048;-86
2020/12/01 03:30:20;;;;;;;29.30;17.30;;;;;;;2.67;100.00;100948.16;4908161;29;20048;-87
2020/12/01 03:32:48;;;;;;;24.75;16.70;;;;;;;2.59;100.00;100956.19;4907045;29;20048;-88
2020/12/01 03:35:16;;;;;;;25.67;16.42;;;;;;;2.65;100.00;100956.09;4910469;29;20524;-88
2020/12/01 03:37:43;;;;;;;26.80;15.88;;;;;;;2.60;100.00;100949.16;4913477;29;20048;-88
2020/12/01 03:40:10;;;;;;;26.17;16.47;;;;;;;2.64;100.00;100953.50;4907762;29;20032;-89
2020/12/01 03:42:37;;;;;;;27.00;17.23;;;;;;;2.70;100.00;100957.78;4883505;29;20087;-89
2020/12/01 03:45:05;;;;;;;28.33;16.77;;;;;;;2.76;100.00;100968.28;4910626;29;20085;-88
2020/12/01 03:47:32;;;;;;;25.85;16.90;;;;;;;2.77;100.00;100970.91;4910997;29;20554;-88
2020/12/01 03:49:59;;;;;;;24.92;14.98;;;;;;;2.75;100.00;100966.53;4908783;29;20044;-88
2020/12/01 03:52:27;;;;;;;26.15;15.52;;;;;;;2.82;100.00;100966.44;4909452;29;20430;-88
2020/12/01 03:54:54;;;;;;;24.58;15.77;;;;;;;2.80;100.00;100965.56;4888662;29;20043;-88
2020/12/01 03:57:21;;;;;;;24.52;15.85;;;;;;;2.67;100.00;100974.59;4903963;29;20123;-88
2020/12/01 03:59:49;;;;;;;24.65;15.38;;;;;;;2.81;100.00;100969.06;4912853;29;20048;-88
2020/12/01 04:02:16;;;;;;;28.02;17.42;;;;;;;2.84;100.00;100967.25;4911599;29;20521;-88
2020/12/01 04:04:44;;;;;;;28.77;17.40;;;;;;;2.87;100.00;100971.63;4892021;29;20467;-88
2020/12/01 04:07:11;;;;;;;25.92;16.48;;;;;;;2.84;100.00;100972.53;4908982;29;20486;-89
2020/12/01 04:09:39;;;;;;;24.45;16.13;;;;;;;2.80;100.00;100981.44;4894287;29;20047;-88
2020/12/01 04:12:07;;;;;;;24.55;15.77;;;;;;;2.79;100.00;100977.03;4904672;29;20046;-88
2020/12/01 04:14:35;;;;;;;25.07;16.43;;;;;;;2.81;100.00;100982.28;4905763;29;20036;-88
2020/12/01 04:17:02;;;;;;;25.40;16.70;;;;;;;2.84;100.00;100983.13;4896885;29;20107;-89
2020/12/01 04:19:31;;;;;;;29.60;18.30;;;;;;;2.89;100.00;100980.44;4912110;29;20095;-89
2020/12/01 04:21:58;;;;;;;28.40;17.45;;;;;;;2.91;100.00;100983.03;4907600;29;20071;-88
2020/12/01 04:24:26;;;;;;;26.45;16.65;;;;;;;2.91;100.00;100983.91;4901369;29;20053;-88
2020/12/01 04:26:55;;;;;;;28.40;16.88;;;;;;;2.90;100.00;100982.16;4892532;29;20048;-90
2020/12/01 04:29:22;;;;;;;24.00;16.75;;;;;;;2.95;100.00;100984.72;4908079;29;20063;-88
2020/12/01 04:31:49;;;;;;;25.63;16.63;;;;;;;2.93;100.00;100984.78;4911561;29;20095;-88
2020/12/01 04:34:16;;;;;;;27.60;17.05;;;;;;;2.88;100.00;100995.44;4903194;29;20051;-90
2020/12/01 04:36:44;;;;;;;23.88;16.05;;;;;;;2.96;100.00;100986.47;4901811;29;20088;-89
2020/12/01 04:39:11;;;;;;;22.15;15.65;;;;;;;2.89;100.00;100991.00;4906007;29;20063;-88
2020/12/01 04:41:38;;;;;;;27.80;17.52;;;;;;;2.88;100.00;100998.06;4910494;29;20123;-90
2020/12/01 04:44:23;;;;;;;27.08;17.02;;;;;;;2.89;100.00;100999.81;4878298;29;20617;-89
2020/12/01 04:46:52;;;;;;;27.50;18.23;;;;;;;2.99;100.00;101002.28;4909724;29;20088;-88
2020/12/01 04:49:25;;;;;;;26.05;18.13;;;;;;;3.04;100.00;101003.13;4910361;29;20040;-88
2020/12/01 04:52:07;;;;;;;26.08;17.58;;;;;;;3.06;100.00;101011.88;4898674;29;20135;-89
2020/12/01 04:55:03;;;;;;;26.92;17.60;;;;;;;3.02;100.00;101013.69;4889657;29;20059;-89
2020/12/01 04:58:02;;;;;;;27.27;18.60;;;;;;;3.03;100.00;101014.56;4882532;29;20086;-89
2020/12/01 05:00:39;;;;;;;30.33;18.42;;;;;;;3.01;100.00;101017.25;4902695;29;20518;-89
2020/12/01 05:03:21;;;;;;;29.20;17.30;;;;;;;3.01;100.00;101019.91;4911604;29;20035;-89
2020/12/01 05:05:59;;;;;;;25.67;17.73;;;;;;;3.02;100.00;101019.00;4902558;29;20048;-88
2020/12/01 05:08:36;;;;;;;29.75;18.70;;;;;;;3.07;100.00;101024.22;4904809;29;20047;-89
2020/12/01 05:11:12;;;;;;;30.13;17.88;;;;;;;3.00;100.00;101028.75;4902777;29;20043;-89
2020/12/01 05:13:39;;;;;;;28.05;17.00;;;;;;;3.00;100.00;101026.09;4905681;29;20139;-89
2020/12/01 05:16:23;;;;;;;28.98;18.42;;;;;;;3.00;100.00;101031.38;4895495;29;20047;-89
2020/12/01 05:18:50;;;;;;;30.90;18.75;;;;;;;2.97;100.00;101033.22;4906180;29;20286;-88
2020/12/01 05:21:23;;;;;;;25.50;17.60;;;;;;;3.00;100.00;101030.50;4902076;29;20036;-88
2020/12/01 05:23:51;;;;;;;30.45;18.13;;;;;;;3.02;100.00;101040.16;4908266;29;20525;-89
2020/12/01 05:26:23;;;;;;;29.83;19.33;;;;;;;3.02;100.00;101034.88;4911375;29;20079;-90
2020/12/01 05:28:53;;;;;;;27.42;17.77;;;;;;;3.03;100.00;101033.09;4911527;29;20058;-89
2020/12/01 05:31:25;;;;;;;34.67;18.48;;;;;;;3.01;100.00;101033.13;4909789;29;20036;-89
2020/12/01 05:34:00;;;;;;;25.88;17.20;;;;;;;3.09;100.00;101041.81;4903687;29;20032;-89
2020/12/01 05:36:31;;;;;;;29.33;18.67;;;;;;;3.12;100.00;101052.34;4905512;29;20040;-89
2020/12/01 05:38:59;;;;;;;;;;;;;;;3.17;100.00;101043.47;4910014;29;20071;-89
2020/12/01 05:41:29;;;;;;;27.15;18.33;;;;;;;3.16;100.00;101044.38;4908080;29;19927;-89
2020/12/01 05:44:00;;;;;;;27.63;17.85;;;;;;;3.16;100.00;101047.00;4914802;29;20050;-89
2020/12/01 05:46:32;;;;;;;;;;;;;;;3.13;100.00;101045.28;4912924;29;20071;-87
2020/12/01 05:49:05;;;;;;;26.08;16.40;;;;;;;3.08;100.00;101057.72;4908126;29;20182;-88
2020/12/01 05:51:39;;;;;;;27.02;17.40;;;;;;;3.13;100.00;101055.88;4908796;29;20410;-87
2020/12/01 05:54:13;;;;;;;29.80;19.25;;;;;;;3.09;100.00;101062.09;4895235;29;20044;-88
2020/12/01 05:56:47;;;;;;;30.88;19.05;;;;;;;3.05;100.00;101063.91;4897135;29;20517;-88
2020/12/01 05:59:17;;;;;;;26.58;17.80;;;;;;;3.03;100.00;101062.19;4896792;29;20056;-88
2020/12/01 06:01:48;;;;;;;29.38;18.80;;;;;;;3.07;100.00;101069.22;4903736;29;20048;-89
2020/12/01 06:04:18;;;;;;;26.30;18.55;;;;;;;3.11;100.00;101076.19;4910653;29;20036;-90
2020/12/01 06:07:00;;;;;;;34.53;20.65;;;;;;;3.12;100.00;101072.66;4909708;29;20044;-91
2020/12/01 06:09:41;;;;;;;30.70;19.83;;;;;;;3.07;100.00;101074.50;4910995;29;20050;-90
2020/12/01 06:12:19;;;;;;;31.95;20.25;;;;;;;3.11;100.00;101084.13;4911655;29;20044;-89
2020/12/01 06:14:54;;;;;;;31.25;19.80;;;;;;;3.12;100.00;101091.16;4912640;29;20123;-90
2020/12/01 06:17:35;;;;;;;29.95;18.63;;;;;;;3.18;100.00;101082.28;4904362;29;20363;-92
2020/12/01 06:20:16;;;;;;;28.25;18.95;;;;;;;3.13;100.00;101092.91;4891111;29;20032;-91
2020/12/01 06:23:23;;;;;;;29.95;18.60;;;;;;;3.14;100.00;101099.97;4905196;29;20071;-93
2020/12/01 06:26:26;;;;;;;30.02;18.88;;;;;;;3.18;100.00;101104.31;4921233;29;20048;-93
2020/12/01 06:29:27;;;;;;;28.73;19.00;;;;;;;3.19;100.00;101113.13;4923557;29;20036;-91
2020/12/01 06:32:36;;;;;;;28.55;18.23;;;;;;;3.15;100.00;101114.94;4911719;29;20514;-91
2020/12/01 07:56:27;;;;;;;32.15;17.88;;;;;;;3.31;100.00;101217.00;4719822;30;20108;-84
2020/12/01 07:59:09;;;;;;;;;;;;;;;3.27;100.00;101217.94;4726366;30;20212;-84
2020/12/01 08:01:36;;;;;;;24.05;16.17;;;;;;;3.31;100.00;101217.00;4728998;30;19973;-83
2020/12/01 08:04:05;;;;;;;29.80;18.65;;;;;;;3.26;100.00;101216.22;4730418;30;20821;-84
2020/12/01 08:06:34;;;;;;;32.50;19.02;;;;;;;3.31;100.00;101217.00;4729008;30;20053;-86
2020/12/01 08:09:10;;;;;;;;;;;;;;;3.37;100.00;101227.53;4726862;30;20404;-84
2020/12/01 08:11:41;;;;;;;28.13;18.23;;;;;;;3.37;100.00;101232.81;4724567;30;20334;-86
2020/12/01 08:14:10;;;;;;;;;;;;;;;3.38;100.00;101233.69;4738234;30;20616;-84
2020/12/01 08:16:38;;;;;;;32.58;19.95;;;;;;;3.29;100.00;101228.53;4731210;30;19953;-85
2020/12/01 08:19:08;;;;;;;30.35;19.55;;;;;;;3.44;100.00;101233.63;4728751;30;20123;-85
2020/12/01 08:21:39;;;;;;;30.40;19.80;;;;;;;3.49;100.00;101241.47;4729311;30;20067;-86
2020/12/01 08:24:09;;;;;;;31.38;19.15;;;;;;;3.43;100.00;101233.66;4712541;30;20641;-86
2020/12/01 11:03:07;;;;;;;37.03;27.25;;;;;;;4.34;100.00;101407.16;4740042;30;20536;-87
2020/12/01 11:41:03;;;;;;;40.53;30.25;;;;;;;4.51;100.00;101456.44;4636323;30;20464;-84
2020/12/01 12:00:29;;;;;;;39.03;27.73;;;;;;;4.56;100.00;101479.31;4732703;30;20047;-86
2020/12/01 12:02:59;;;;;;;37.42;27.45;;;;;;;4.61;100.00;101486.31;4760831;30;20068;-84
2020/12/01 12:41:35;;;;;;;31.25;23.95;;;;;;;5.53;100.00;101545.00;4735465;30;20277;-86
2020/12/01 13:14:11;;;;;;;29.33;19.25;;;;;;;5.63;100.00;101574.97;5777530;24;20032;31
2020/12/01 14:00:08;;;;;;;30.55;20.20;;;;;;;5.24;100.00;101618.97;4788235;24;20155;-88
2020/12/01 14:02:36;;;;;;;29.10;19.65;;;;;;;5.02;100.00;101632.56;4747822;29;20074;-86
2020/12/01 14:05:04;;;;;;;29.92;20.05;;;;;;;5.11;100.00;101639.50;4753325;29;20056;-86
2020/12/01 14:07:31;;;;;;;31.10;20.08;;;;;;;5.04;100.00;101637.84;4738672;30;20047;-86
2020/12/01 14:09:58;;;;;;;32.40;20.67;;;;;;;5.10;100.00;101635.09;4745630;30;20043;-86
2020/12/01 14:12:26;;;;;;;29.63;19.98;;;;;;;5.13;100.00;101643.03;4736655;30;20070;-87
2020/12/01 14:14:53;;;;;;;29.13;20.70;;;;;;;5.05;100.00;101652.88;4736616;30;20059;-86
2020/12/01 14:17:21;;;;;;;31.83;19.60;;;;;;;4.92;100.00;101665.44;4742086;30;20055;-86
2020/12/01 14:19:48;;;;;;;30.20;20.98;;;;;;;5.02;100.00;101661.75;4736946;30;20043;-85
2020/12/01 14:22:15;;;;;;;29.80;19.30;;;;;;;5.01;100.00;101661.75;4736232;30;21066;-86
2020/12/01 14:24:42;;;;;;;30.60;19.65;;;;;;;5.07;100.00;101670.53;4741669;29;20050;-84
2020/12/01 14:27:09;;;;;;;31.67;21.17;;;;;;;5.07;100.00;101667.00;4730815;30;20177;-85
2020/12/01 14:29:36;;;;;;;37.33;21.75;;;;;;;5.11;100.00;101673.13;4730828;30;20052;-85
2020/12/01 14:32:04;;;;;;;29.50;19.95;;;;;;;5.15;100.00;101675.72;4738303;30;20071;-85
2020/12/01 14:34:32;;;;;;;30.02;19.55;;;;;;;5.13;100.00;101677.53;4744832;30;20052;-87
2020/12/01 14:37:04;;;;;;;27.45;19.20;;;;;;;5.08;100.00;101687.31;4742735;30;20055;-88
2020/12/01 14:39:31;;;;;;;26.75;18.95;;;;;;;4.96;100.00;101677.75;4741163;30;20055;-86
2020/12/01 14:42:00;;;;;;;34.05;21.45;;;;;;;4.96;100.00;101684.84;4738340;29;20090;-87
2020/12/01 14:44:27;;;;;;;28.55;19.30;;;;;;;4.88;100.00;101678.75;4740219;29;20066;-87
2020/12/01 14:47:31;;;;;;;29.30;19.10;;;;;;;4.87;100.00;101692.91;4737565;30;20051;-88
2020/12/01 14:50:26;;;;;;;27.17;19.73;;;;;;;4.74;100.00;101698.38;4736200;30;20486;-87
2020/12/01 14:53:00;;;;;;;30.23;19.75;;;;;;;4.50;100.00;101702.16;4737678;29;20534;-87
2020/12/01 14:55:38;;;;;;;30.13;19.30;;;;;;;4.53;100.00;101703.91;4734581;30;20063;-86
2020/12/01 14:58:44;;;;;;;32.50;20.13;;;;;;;4.58;100.00;101700.34;4729141;30;20059;-87
2020/12/01 15:01:19;;;;;;;32.63;19.40;;;;;;;4.61;100.00;101704.69;4732772;30;20072;-86
2020/12/01 15:03:53;;;;;;;28.35;19.42;;;;;;;4.51;100.00;101709.25;4737558;30;20457;-88
2020/12/01 15:06:51;;;;;;;29.60;19.20;;;;;;;4.56;100.00;101706.53;4731945;30;20553;-87
2020/12/01 15:09:45;;;;;;;30.55;19.50;;;;;;;4.55;100.00;101702.13;4725111;29;20773;-88
2020/12/01 15:12:34;;;;;;;27.55;19.17;;;;;;;4.62;100.00;101709.13;4732926;29;20620;-90
2020/12/01 15:15:05;;;;;;;29.77;20.70;;;;;;;4.70;100.00;101722.31;4747312;30;20505;-88
2020/12/01 15:17:36;;;;;;;28.80;20.33;;;;;;;4.73;100.00;101732.91;4742559;30;20112;-89
2020/12/01 15:20:10;;;;;;;30.02;19.17;;;;;;;4.70;100.00;101731.16;4738792;30;20079;-92
2020/12/01 15:22:48;;;;;;;31.02;19.58;;;;;;;4.69;100.00;101728.50;4733969;30;20403;-91
2020/12/01 15:25:19;;;;;;;28.33;19.85;;;;;;;4.71;100.00;101730.25;4733518;30;20422;-94
2020/12/01 15:27:50;;;;;;;29.60;20.20;;;;;;;4.65;100.00;101727.66;4736882;30;20968;-94
2020/12/01 15:30:20;;;;;;;29.75;20.48;;;;;;;4.68;100.00;101729.41;4738571;30;20529;-92
2020/12/01 15:32:49;;;;;;;26.60;19.15;;;;;;;4.65;100.00;101738.25;4744139;30;20596;-91
2020/12/01 15:35:24;;;;;;;31.05;19.65;;;;;;;4.51;100.00;101748.16;4744553;30;20047;-92
2020/12/01 15:38:02;;;;;;;26.58;19.45;;;;;;;4.52;100.00;101748.13;4735786;30;20246;-90
2020/12/01 15:40:52;;;;;;;26.17;18.38;;;;;;;4.62;100.00;101753.34;4733761;30;20059;-90
2020/12/01 15:43:24;;;;;;;28.88;19.45;;;;;;;4.52;100.00;101752.56;4741081;30;20055;-88
2020/12/01 22:25:50;;;;;;;38.53;21.38;;;;;;;4.16;100.00;102140.78;4734593;30;20112;-93
2020/12/01 22:28:52;;;;;;;39.65;21.30;;;;;;;4.10;100.00;102152.28;4732248;30;20085;-93
2020/12/01 22:31:58;;;;;;;38.88;21.05;;;;;;;4.15;100.00;102145.22;4733904;30;20098;-90
2020/12/01 22:34:55;;;;;;;46.53;23.02;;;;;;;3.95;100.00;102152.31;4717026;30;20071;-92
2020/12/01 22:37:27;;;;;;;43.42;21.45;;;;;;;4.08;100.00;102138.16;4728567;30;20116;-91
2020/12/01 22:39:56;;;;;;;42.75;21.05;;;;;;;4.00;100.00;102143.47;4728439;30;20041;-92
2020/12/01 22:42:29;;;;;;;41.45;20.20;;;;;;;3.98;100.00;102132.00;4720958;30;20060;-93
2020/12/01 22:45:12;;;;;;;42.00;20.63;;;;;;;4.06;100.00;102142.56;4727495;30;20575;-91
2020/12/01 22:48:02;;;;;;;43.20;21.48;;;;;;;4.02;100.00;102139.03;4728644;30;20049;-91
2020/12/01 22:50:56;;;;;;;39.28;20.95;;;;;;;4.06;100.00;102142.56;4727021;30;20052;-90
2020/12/01 22:54:02;;;;;;;43.67;19.95;;;;;;;3.99;100.00;102136.41;4722254;30;20055;-91
2020/12/01 22:56:48;;;;;;;42.25;20.55;;;;;;;4.10;100.00;102137.25;4731407;30;20112;-90
2020/12/01 22:59:17;;;;;;;38.78;20.30;;;;;;;3.93;100.00;102133.78;4733057;30;20531;-93
2020/12/01 23:01:46;;;;;;;45.03;20.98;;;;;;;4.07;100.00;102136.38;4733233;30;20048;-92
2020/12/01 23:04:14;;;;;;;41.53;20.48;;;;;;;4.16;100.00;102139.03;4730636;30;20484;-92
2020/12/01 23:06:47;;;;;;;44.55;20.67;;;;;;;4.10;100.00;102146.97;4720135;30;20284;-91
2020/12/01 23:09:17;;;;;;;42.72;20.52;;;;;;;4.16;100.00;102148.75;4728846;30;20487;-90
2020/12/01 23:11:48;;;;;;;38.15;19.02;;;;;;;4.21;100.00;102144.31;4728303;30;20055;-91
2020/12/01 23:14:25;;;;;;;41.95;19.70;;;;;;;4.16;100.00;102149.63;4716229;30;20068;-92
2020/12/01 23:16:57;;;;;;;42.72;21.55;;;;;;;4.14;100.00;102143.44;4720726;30;20060;-92
2020/12/01 23:19:26;;;;;;;39.60;20.48;;;;;;;4.15;100.00;102139.91;4711283;30;20140;-93
2020/12/01 23:22:00;;;;;;;47.47;22.00;;;;;;;3.95;100.00;102137.28;4727659;30;20061;-93
2020/12/01 23:24:28;;;;;;;39.92;20.30;;;;;;;3.96;100.00;102143.47;4729624;30;20096;-93
2020/12/01 23:26:58;;;;;;;46.67;21.52;;;;;;;4.05;100.00;102138.16;4730942;30;20143;-93
2020/12/01 23:29:34;;;;;;;39.73;20.80;;;;;;;3.95;100.00;102137.28;4717267;30;20114;-93
2020/12/01 23:32:04;;;;;;;40.45;21.35;;;;;;;3.93;100.00;102143.47;4727323;30;20049;-92
2020/12/01 23:34:31;;;;;;;41.10;21.40;;;;;;;4.02;100.00;102127.56;4718843;30;20056;-91
2020/12/01 23:36:59;;;;;;;42.17;21.45;;;;;;;3.96;100.00;102138.16;4726419;30;20052;-92
2020/12/01 23:39:26;;;;;;;46.05;20.75;;;;;;;3.97;100.00;102134.66;4729349;30;20060;-92
2020/12/01 23:41:56;;;;;;;45.63;21.35;;;;;;;4.09;100.00;102142.56;4714942;30;20522;-92
2020/12/01 23:44:33;;;;;;;41.28;21.10;;;;;;;4.10;100.00;102142.56;4731939;30;20052;-93
2020/12/01 23:47:08;;;;;;;35.92;20.52;;;;;;;4.09;100.00;102138.16;4714022;30;20202;-92
2020/12/01 23:49:38;;;;;;;41.13;20.88;;;;;;;4.13;100.00;102136.38;4709894;30;20056;-92
2020/12/01 23:52:12;;;;;;;38.45;20.67;;;;;;;4.00;100.00;102129.31;4725950;30;20056;-91
2020/12/01 23:54:40;;;;;;;41.72;21.40;;;;;;;4.10;100.00;102133.72;4730772;30;20079;-92
2020/12/01 23:57:21;;;;;;;38.75;20.80;;;;;;;4.05;100.00;102125.78;4731110;30;20048;-92
2020/12/01 23:59:49;;;;;;;43.13;21.58;;;;;;;4.05;100.00;102125.78;4731500;30;20072;-93
